DLH5910 LFPG-EDDF
Flight info
| Callsign | DLH5910 |
|---|---|
| Flight time | 0h 49m |
| Altitude | 23000 |
| Route | RANUX DCT VALEK DCT LIPNI UN858 LIMGO Z111 RAMOB IMCOM1D |
| Aircraft | A20N/M-SDE2E3FGIJ1LORWXYZ/HB1 |
Departure
| Time | 2026-05-01 12:25 |
|---|---|
| Airport | Charles de Gaulle International Airport (LFPG) |
Arrival
| Time | 2026-05-01 13:15 |
|---|---|
| Airport | Frankfurt Main Airport (EDDF) |
| Time | Latitude | Longitude | Altitude | Speed | Heading |
|---|---|---|---|---|---|
| 2026-05-01 12:07 | 48.99602 | 2.55861 | 353 ft | 0 kts | 85° |
| 2026-05-01 12:08 | 49.00719 | 2.57447 | 361 ft | 0 kts | 208° |
| 2026-05-01 12:12 | 49.00735 | 2.57459 | 357 ft | 4 kts | 194° |
| 2026-05-01 12:12 | 49.00758 | 2.57459 | 354 ft | 4 kts | 129° |
| 2026-05-01 12:12 | 49.00763 | 2.57441 | 364 ft | 1 kts | 84° |
| 2026-05-01 12:13 | 49.00763 | 2.57438 | 364 ft | 0 kts | 84° |
| 2026-05-01 12:18 | 49.00763 | 2.57442 | 364 ft | 3 kts | 84° |
| 2026-05-01 12:18 | 49.00770 | 2.57550 | 354 ft | 14 kts | 84° |
| 2026-05-01 12:18 | 49.00781 | 2.57723 | 359 ft | 18 kts | 84° |
| 2026-05-01 12:19 | 49.00795 | 2.57932 | 364 ft | 21 kts | 84° |
| 2026-05-01 12:19 | 49.00810 | 2.58167 | 362 ft | 24 kts | 84° |
| 2026-05-01 12:19 | 49.00836 | 2.58423 | 355 ft | 21 kts | 81° |
| 2026-05-01 12:19 | 49.00849 | 2.58591 | 359 ft | 18 kts | 84° |
| 2026-05-01 12:20 | 49.00788 | 2.58689 | 358 ft | 15 kts | 168° |
| 2026-05-01 12:20 | 49.00669 | 2.58706 | 356 ft | 19 kts | 175° |
| 2026-05-01 12:20 | 49.00533 | 2.58723 | 355 ft | 22 kts | 174° |
| 2026-05-01 12:20 | 49.00372 | 2.58739 | 355 ft | 24 kts | 175° |
| 2026-05-01 12:21 | 49.00195 | 2.58764 | 356 ft | 26 kts | 174° |
| 2026-05-01 12:21 | 49.00072 | 2.58765 | 359 ft | 16 kts | 192° |
| 2026-05-01 12:21 | 48.99960 | 2.58710 | 360 ft | 15 kts | 231° |
| 2026-05-01 12:21 | 48.99938 | 2.58553 | 356 ft | 17 kts | 259° |
| 2026-05-01 12:22 | 48.99920 | 2.58350 | 354 ft | 21 kts | 265° |
| 2026-05-01 12:22 | 48.99909 | 2.58109 | 359 ft | 25 kts | 265° |
| 2026-05-01 12:22 | 48.99894 | 2.57837 | 354 ft | 18 kts | 265° |
| 2026-05-01 12:22 | 48.99890 | 2.57743 | 354 ft | 11 kts | 268° |
| 2026-05-01 12:23 | 48.99884 | 2.57606 | 356 ft | 15 kts | 265° |
| 2026-05-01 12:23 | 48.99875 | 2.57421 | 358 ft | 20 kts | 264° |
| 2026-05-01 12:23 | 48.99862 | 2.57197 | 354 ft | 23 kts | 266° |
| 2026-05-01 12:23 | 48.99850 | 2.56943 | 359 ft | 25 kts | 265° |
| 2026-05-01 12:24 | 48.99835 | 2.56707 | 354 ft | 3 kts | 264° |
| 2026-05-01 12:24 | 48.99831 | 2.56672 | 354 ft | 9 kts | 253° |
| 2026-05-01 12:24 | 48.99755 | 2.56609 | 359 ft | 16 kts | 181° |
| 2026-05-01 12:24 | 48.99650 | 2.56650 | 358 ft | 16 kts | 106° |
| 2026-05-01 12:25 | 48.99675 | 2.57219 | 352 ft | 101 kts | 86° |
| 2026-05-01 12:25 | 48.99890 | 2.60600 | 1125 ft | 184 kts | 86° |
| 2026-05-01 12:25 | 48.99986 | 2.62508 | 2317 ft | 183 kts | 88° |
| 2026-05-01 12:26 | 49.00076 | 2.64544 | 3175 ft | 204 kts | 88° |
| 2026-05-01 12:26 | 49.00314 | 2.69338 | 4991 ft | 245 kts | 87° |
| 2026-05-01 12:26 | 49.00455 | 2.71935 | 6145 ft | 250 kts | 87° |
| 2026-05-01 12:27 | 49.00600 | 2.74690 | 6881 ft | 271 kts | 88° |
| 2026-05-01 12:27 | 49.00897 | 2.80538 | 8920 ft | 280 kts | 87° |
| 2026-05-01 12:28 | 49.01208 | 2.86559 | 10832 ft | 296 kts | 88° |
| 2026-05-01 12:28 | 49.01373 | 2.89811 | 11291 ft | 319 kts | 88° |
| 2026-05-01 12:28 | 49.01930 | 2.96784 | 12710 ft | 342 kts | 82° |
| 2026-05-01 12:29 | 49.02364 | 3.00377 | 13663 ft | 346 kts | 83° |
| 2026-05-01 12:29 | 49.02778 | 3.04016 | 14510 ft | 350 kts | 83° |
| 2026-05-01 12:29 | 49.03627 | 3.11456 | 16072 ft | 360 kts | 83° |
| 2026-05-01 12:30 | 49.04502 | 3.19041 | 17611 ft | 369 kts | 83° |
| 2026-05-01 12:30 | 49.04952 | 3.22935 | 18348 ft | 374 kts | 83° |
| 2026-05-01 12:30 | 49.05405 | 3.26862 | 19033 ft | 378 kts | 83° |
| 2026-05-01 12:31 | 49.05863 | 3.30839 | 19753 ft | 381 kts | 83° |
| 2026-05-01 12:31 | 49.06321 | 3.34835 | 20452 ft | 383 kts | 83° |
| 2026-05-01 12:31 | 49.06776 | 3.38810 | 21129 ft | 387 kts | 83° |
| 2026-05-01 12:31 | 49.07239 | 3.42862 | 21817 ft | 389 kts | 83° |
| 2026-05-01 12:32 | 49.07704 | 3.46955 | 22477 ft | 393 kts | 83° |
| 2026-05-01 12:32 | 49.08630 | 3.55265 | 23209 ft | 397 kts | 85° |
| 2026-05-01 12:32 | 49.08919 | 3.59453 | 23247 ft | 396 kts | 87° |
| 2026-05-01 12:33 | 49.09195 | 3.63592 | 23245 ft | 396 kts | 87° |
| 2026-05-01 12:33 | 49.09478 | 3.67768 | 23243 ft | 396 kts | 87° |
| 2026-05-01 12:33 | 49.09761 | 3.71965 | 23242 ft | 396 kts | 87° |
| 2026-05-01 12:33 | 49.10042 | 3.76150 | 23241 ft | 396 kts | 87° |
| 2026-05-01 12:34 | 49.10318 | 3.80287 | 23244 ft | 397 kts | 87° |
| 2026-05-01 12:34 | 49.10595 | 3.84483 | 23240 ft | 396 kts | 87° |
| 2026-05-01 12:34 | 49.10870 | 3.88690 | 23241 ft | 397 kts | 87° |
| 2026-05-01 12:34 | 49.11145 | 3.92884 | 23238 ft | 397 kts | 87° |
| 2026-05-01 12:35 | 49.11416 | 3.97066 | 23241 ft | 397 kts | 87° |
| 2026-05-01 12:35 | 49.11684 | 4.01221 | 23239 ft | 397 kts | 87° |
| 2026-05-01 12:35 | 49.11953 | 4.05431 | 23238 ft | 398 kts | 87° |
| 2026-05-01 12:35 | 49.12222 | 4.09642 | 23238 ft | 397 kts | 87° |
| 2026-05-01 12:36 | 49.12489 | 4.13844 | 23240 ft | 397 kts | 87° |
| 2026-05-01 12:36 | 49.12755 | 4.18061 | 23235 ft | 398 kts | 87° |
| 2026-05-01 12:36 | 49.13015 | 4.22208 | 23238 ft | 398 kts | 87° |
| 2026-05-01 12:36 | 49.13278 | 4.26430 | 23237 ft | 398 kts | 87° |
| 2026-05-01 12:37 | 49.13539 | 4.30646 | 23242 ft | 398 kts | 87° |
| 2026-05-01 12:37 | 49.13925 | 4.34838 | 23241 ft | 400 kts | 80° |
| 2026-05-01 12:37 | 49.14668 | 4.38950 | 23243 ft | 402 kts | 73° |
| 2026-05-01 12:37 | 49.15703 | 4.42876 | 23247 ft | 403 kts | 69° |
| 2026-05-01 12:38 | 49.16789 | 4.46829 | 23243 ft | 403 kts | 69° |
| 2026-05-01 12:38 | 49.17874 | 4.50819 | 23246 ft | 403 kts | 70° |
| 2026-05-01 12:38 | 49.18944 | 4.54772 | 23249 ft | 402 kts | 70° |
| 2026-05-01 12:38 | 49.20010 | 4.58722 | 23246 ft | 403 kts | 70° |
| 2026-05-01 12:39 | 49.21080 | 4.62689 | 23257 ft | 403 kts | 70° |
| 2026-05-01 12:39 | 49.22150 | 4.66657 | 23254 ft | 403 kts | 70° |
| 2026-05-01 12:39 | 49.23203 | 4.70572 | 23260 ft | 402 kts | 70° |
| 2026-05-01 12:39 | 49.24267 | 4.74538 | 23258 ft | 402 kts | 70° |
| 2026-05-01 12:40 | 49.25336 | 4.78524 | 23262 ft | 403 kts | 69° |
| 2026-05-01 12:40 | 49.26392 | 4.82470 | 23258 ft | 403 kts | 69° |
| 2026-05-01 12:40 | 49.27434 | 4.86370 | 23260 ft | 403 kts | 69° |
| 2026-05-01 12:40 | 49.28491 | 4.90328 | 23254 ft | 402 kts | 69° |
| 2026-05-01 12:41 | 49.29560 | 4.94342 | 23267 ft | 402 kts | 69° |
| 2026-05-01 12:41 | 49.30622 | 4.98338 | 23262 ft | 402 kts | 69° |
| 2026-05-01 12:41 | 49.31677 | 5.02310 | 23264 ft | 402 kts | 69° |
| 2026-05-01 12:41 | 49.32711 | 5.06212 | 23263 ft | 402 kts | 69° |
| 2026-05-01 12:42 | 49.33757 | 5.10171 | 23266 ft | 402 kts | 70° |
| 2026-05-01 12:42 | 49.34818 | 5.14187 | 23268 ft | 402 kts | 69° |
| 2026-05-01 12:42 | 49.35870 | 5.18179 | 23265 ft | 402 kts | 70° |
| 2026-05-01 12:42 | 49.36919 | 5.22168 | 23260 ft | 401 kts | 69° |
| 2026-05-01 12:43 | 49.37951 | 5.26092 | 23268 ft | 401 kts | 70° |
| 2026-05-01 12:43 | 49.38996 | 5.30079 | 23271 ft | 402 kts | 69° |
| 2026-05-01 12:43 | 49.40029 | 5.34025 | 23268 ft | 401 kts | 70° |
| 2026-05-01 12:43 | 49.41063 | 5.37989 | 23266 ft | 401 kts | 70° |
| 2026-05-01 12:44 | 49.42101 | 5.41976 | 23271 ft | 401 kts | 70° |
| 2026-05-01 12:44 | 49.43138 | 5.45957 | 23272 ft | 401 kts | 70° |
| 2026-05-01 12:44 | 49.45213 | 5.53938 | 23272 ft | 401 kts | 69° |
| 2026-05-01 12:45 | 49.47258 | 5.61841 | 23269 ft | 400 kts | 70° |
| 2026-05-01 12:45 | 49.48289 | 5.65837 | 23272 ft | 400 kts | 69° |
| 2026-05-01 12:45 | 49.49315 | 5.69815 | 23268 ft | 400 kts | 70° |
| 2026-05-01 12:46 | 49.50337 | 5.73787 | 23271 ft | 399 kts | 70° |
| 2026-05-01 12:46 | 49.51346 | 5.77712 | 23276 ft | 399 kts | 69° |
| 2026-05-01 12:46 | 49.52344 | 5.81686 | 23272 ft | 399 kts | 70° |
| 2026-05-01 12:46 | 49.53305 | 5.85694 | 23277 ft | 399 kts | 71° |
| 2026-05-01 12:47 | 49.54276 | 5.89708 | 23284 ft | 399 kts | 70° |
| 2026-05-01 12:47 | 49.55260 | 5.93709 | 23286 ft | 399 kts | 70° |
| 2026-05-01 12:47 | 49.56240 | 5.97669 | 23287 ft | 398 kts | 70° |
| 2026-05-01 12:47 | 49.57227 | 6.01659 | 23289 ft | 399 kts | 70° |
| 2026-05-01 12:48 | 49.58214 | 6.05660 | 23291 ft | 398 kts | 70° |
| 2026-05-01 12:48 | 49.59198 | 6.09650 | 23294 ft | 398 kts | 70° |
| 2026-05-01 12:48 | 49.60181 | 6.13653 | 23295 ft | 398 kts | 70° |
| 2026-05-01 12:48 | 49.60825 | 6.16283 | 23293 ft | 397 kts | 70° |
| 2026-05-01 12:49 | 49.62119 | 6.21573 | 23290 ft | 398 kts | 70° |
| 2026-05-01 12:49 | 49.63096 | 6.25575 | 23300 ft | 398 kts | 70° |
| 2026-05-01 12:49 | 49.64238 | 6.29445 | 23290 ft | 398 kts | 63° |
| 2026-05-01 12:49 | 49.65550 | 6.33222 | 23293 ft | 398 kts | 63° |
| 2026-05-01 12:50 | 49.66413 | 6.35718 | 23291 ft | 398 kts | 63° |
| 2026-05-01 12:50 | 49.67417 | 6.39672 | 23295 ft | 396 kts | 77° |
| 2026-05-01 12:50 | 49.67999 | 6.43844 | 23284 ft | 397 kts | 79° |
| 2026-05-01 12:50 | 49.68563 | 6.48008 | 23206 ft | 396 kts | 79° |
| 2026-05-01 12:51 | 49.69127 | 6.52182 | 22947 ft | 395 kts | 79° |
| 2026-05-01 12:51 | 49.69679 | 6.56272 | 22687 ft | 392 kts | 79° |
| 2026-05-01 12:51 | 49.70792 | 6.64506 | 22145 ft | 389 kts | 79° |
| 2026-05-01 12:52 | 49.71335 | 6.68541 | 21894 ft | 388 kts | 79° |
| 2026-05-01 12:52 | 49.72424 | 6.76682 | 21370 ft | 385 kts | 79° |
| 2026-05-01 12:52 | 49.72963 | 6.80722 | 21126 ft | 384 kts | 79° |
| 2026-05-01 12:53 | 49.74028 | 6.88727 | 20629 ft | 380 kts | 80° |
| 2026-05-01 12:53 | 49.74546 | 6.92638 | 20387 ft | 378 kts | 80° |
| 2026-05-01 12:53 | 49.75078 | 6.96664 | 19947 ft | 379 kts | 80° |
| 2026-05-01 12:54 | 49.75604 | 7.00660 | 19336 ft | 380 kts | 80° |
| 2026-05-01 12:54 | 49.76649 | 7.08611 | 18208 ft | 373 kts | 81° |
| 2026-05-01 12:54 | 49.77150 | 7.12451 | 17648 ft | 367 kts | 81° |
| 2026-05-01 12:55 | 49.78137 | 7.20054 | 16559 ft | 358 kts | 81° |
| 2026-05-01 12:55 | 49.78618 | 7.23773 | 16022 ft | 355 kts | 81° |
| 2026-05-01 12:55 | 49.79093 | 7.27457 | 15486 ft | 351 kts | 81° |
| 2026-05-01 12:56 | 49.79568 | 7.31144 | 14956 ft | 348 kts | 81° |
| 2026-05-01 12:56 | 49.80041 | 7.34825 | 14408 ft | 347 kts | 81° |
| 2026-05-01 12:56 | 49.80507 | 7.38479 | 13849 ft | 343 kts | 81° |
| 2026-05-01 12:56 | 49.80963 | 7.42036 | 13412 ft | 327 kts | 81° |
| 2026-05-01 12:57 | 49.81391 | 7.45388 | 13218 ft | 307 kts | 81° |
| 2026-05-01 12:57 | 49.82164 | 7.51464 | 12900 ft | 271 kts | 81° |
| 2026-05-01 12:57 | 49.82515 | 7.54237 | 12743 ft | 253 kts | 82° |
| 2026-05-01 12:58 | 49.82841 | 7.56815 | 12613 ft | 235 kts | 82° |
| 2026-05-01 12:58 | 49.83142 | 7.59191 | 12482 ft | 219 kts | 82° |
| 2026-05-01 12:58 | 49.83421 | 7.61391 | 12478 ft | 195 kts | 82° |
| 2026-05-01 12:59 | 49.83913 | 7.65330 | 11695 ft | 185 kts | 83° |
| 2026-05-01 12:59 | 49.84160 | 7.67356 | 10980 ft | 197 kts | 83° |
| 2026-05-01 12:59 | 49.84697 | 7.71731 | 9642 ft | 210 kts | 83° |
| 2026-05-01 13:00 | 49.85250 | 7.76124 | 8502 ft | 206 kts | 83° |
| 2026-05-01 13:00 | 49.85522 | 7.78270 | 7947 ft | 204 kts | 83° |
| 2026-05-01 13:01 | 49.86057 | 7.82587 | 6909 ft | 201 kts | 84° |
| 2026-05-01 13:01 | 49.86318 | 7.84717 | 6294 ft | 202 kts | 83° |
| 2026-05-01 13:01 | 49.87011 | 7.88791 | 5411 ft | 197 kts | 73° |
| 2026-05-01 13:02 | 49.87506 | 7.90759 | 4985 ft | 194 kts | 74° |
| 2026-05-01 13:07 | 49.94927 | 8.20324 | 3983 ft | 125 kts | 76° |
| 2026-05-01 13:07 | 49.95224 | 8.21584 | 4033 ft | 129 kts | 75° |
| 2026-05-01 13:07 | 49.95537 | 8.22923 | 3977 ft | 128 kts | 75° |
| 2026-05-01 13:08 | 49.95840 | 8.24206 | 3899 ft | 124 kts | 75° |
| 2026-05-01 13:08 | 49.96145 | 8.25477 | 3820 ft | 124 kts | 75° |
| 2026-05-01 13:08 | 49.96441 | 8.26727 | 3766 ft | 126 kts | 76° |
| 2026-05-01 13:08 | 49.96732 | 8.27998 | 3638 ft | 123 kts | 75° |
| 2026-05-01 13:09 | 49.97032 | 8.29265 | 3510 ft | 125 kts | 74° |
| 2026-05-01 13:09 | 49.97332 | 8.30530 | 3396 ft | 126 kts | 73° |
| 2026-05-01 13:09 | 49.97630 | 8.31806 | 3217 ft | 129 kts | 74° |
| 2026-05-01 13:09 | 49.97938 | 8.33083 | 3060 ft | 126 kts | 73° |
| 2026-05-01 13:10 | 49.98242 | 8.34379 | 2914 ft | 125 kts | 75° |
| 2026-05-01 13:10 | 49.98547 | 8.35668 | 2725 ft | 125 kts | 75° |
| 2026-05-01 13:10 | 49.98829 | 8.36873 | 2595 ft | 119 kts | 75° |
| 2026-05-01 13:10 | 49.99123 | 8.38141 | 2433 ft | 128 kts | 74° |
| 2026-05-01 13:11 | 49.99446 | 8.39476 | 2238 ft | 133 kts | 74° |
| 2026-05-01 13:11 | 49.99764 | 8.40800 | 2041 ft | 124 kts | 74° |
| 2026-05-01 13:11 | 50.00046 | 8.42010 | 1887 ft | 123 kts | 74° |
| 2026-05-01 13:11 | 50.00346 | 8.43289 | 1710 ft | 123 kts | 73° |
| 2026-05-01 13:12 | 50.00638 | 8.44510 | 1572 ft | 121 kts | 73° |
| 2026-05-01 13:12 | 50.00933 | 8.45749 | 1392 ft | 128 kts | 72° |
| 2026-05-01 13:12 | 50.01235 | 8.47014 | 1208 ft | 120 kts | 74° |
| 2026-05-01 13:12 | 50.01516 | 8.48190 | 1076 ft | 115 kts | 74° |
| 2026-05-01 13:13 | 50.01796 | 8.49392 | 901 ft | 120 kts | 74° |
| 2026-05-01 13:13 | 50.02061 | 8.50501 | 752 ft | 123 kts | 73° |
| 2026-05-01 13:13 | 50.02312 | 8.51555 | 637 ft | 121 kts | 73° |
| 2026-05-01 13:13 | 50.02569 | 8.52635 | 475 ft | 114 kts | 73° |
| 2026-05-01 13:14 | 50.02792 | 8.53573 | 360 ft | 114 kts | 73° |
| 2026-05-01 13:14 | 50.03008 | 8.54485 | 351 ft | 71 kts | 69° |
| 2026-05-01 13:14 | 50.03142 | 8.55048 | 352 ft | 54 kts | 72° |
| 2026-05-01 13:14 | 50.03257 | 8.55582 | 346 ft | 51 kts | 74° |
| 2026-05-01 13:15 | 50.03362 | 8.55987 | 354 ft | 27 kts | 66° |
| 2026-05-01 13:15 | 50.03448 | 8.56226 | 352 ft | 26 kts | 49° |
| 2026-05-01 13:15 | 50.03580 | 8.56425 | 353 ft | 28 kts | 38° |
| 2026-05-01 13:15 | 50.03695 | 8.56569 | 353 ft | 18 kts | 40° |
| 2026-05-01 13:16 | 50.03719 | 8.56600 | 349 ft | 0 kts | 38° |
| 2026-05-01 13:17 | 50.03793 | 8.56733 | 355 ft | 11 kts | 65° |
| 2026-05-01 13:17 | 50.03828 | 8.56850 | 350 ft | 14 kts | 65° |
| 2026-05-01 13:18 | 50.03918 | 8.57161 | 349 ft | 18 kts | 66° |
| 2026-05-01 13:18 | 50.03955 | 8.57362 | 354 ft | 20 kts | 76° |
| 2026-05-01 13:18 | 50.03997 | 8.57579 | 354 ft | 22 kts | 67° |
| 2026-05-01 13:18 | 50.04054 | 8.57807 | 354 ft | 23 kts | 70° |
| 2026-05-01 13:19 | 50.04105 | 8.58046 | 347 ft | 25 kts | 72° |
| 2026-05-01 13:19 | 50.04156 | 8.58309 | 353 ft | 26 kts | 75° |
| 2026-05-01 13:19 | 50.04236 | 8.58832 | 346 ft | 23 kts | 78° |
| 2026-05-01 13:20 | 50.04307 | 8.59012 | 349 ft | 16 kts | 61° |
| 2026-05-01 13:20 | 50.04373 | 8.59178 | 349 ft | 36 kts | 59° |
| 2026-05-01 13:20 | 50.04428 | 8.59399 | 354 ft | 15 kts | 69° |
| 2026-05-01 13:21 | 50.04548 | 8.59474 | 346 ft | 3 kts | 358° |
| 2026-05-01 13:21 | 50.04590 | 8.59472 | 352 ft | 9 kts | 359° |
| 2026-05-01 13:21 | 50.04668 | 8.59456 | 353 ft | 13 kts | 329° |
| 2026-05-01 13:21 | 50.04719 | 8.59432 | 351 ft | 1 kts | 345° |
| 2026-05-01 13:22 | 50.04766 | 8.59410 | 354 ft | 11 kts | 342° |
| 2026-05-01 13:22 | 50.04852 | 8.59364 | 351 ft | 15 kts | 360° |
| 2026-05-01 13:22 | 50.04965 | 8.59355 | 353 ft | 18 kts | 346° |
| 2026-05-01 13:22 | 50.05072 | 8.59246 | 347 ft | 20 kts | 288° |
| 2026-05-01 13:23 | 50.05065 | 8.59161 | 347 ft | 5 kts | 242° |
| 2026-05-01 13:23 | 50.05023 | 8.58978 | 350 ft | 23 kts | 248° |
| 2026-05-01 13:23 | 50.05001 | 8.58893 | 350 ft | 2 kts | 248° |
| 2026-05-01 13:23 | 50.04988 | 8.58844 | 355 ft | 7 kts | 241° |
| 2026-05-01 13:24 | 50.04936 | 8.58851 | 348 ft | 10 kts | 161° |
| 2026-05-01 13:24 | 50.04913 | 8.58861 | 346 ft | 2 kts | 159° |
| 2026-05-01 13:24 | 50.04904 | 8.58867 | 349 ft | 0 kts | 158° |